createdAt,value
2022-11-28T00:00:06.982Z,61.53
2022-11-28T00:02:39.851Z,61.03
2022-11-28T00:05:07.157Z,60.17
2022-11-28T00:07:34.424Z,55.15
2022-11-28T00:10:02.140Z,52.53
2022-11-28T00:12:29.492Z,55.40
2022-11-28T00:14:56.674Z,39.80
2022-11-28T00:17:24.219Z,51.75
2022-11-28T00:19:51.407Z,62.40
2022-11-28T00:22:18.728Z,50.00
2022-11-28T00:24:45.936Z,59.97
2022-11-28T00:27:13.184Z,65.22
2022-11-28T00:29:40.362Z,47.08
2022-11-28T00:32:07.648Z,51.78
2022-11-28T00:34:34.902Z,36.35
2022-11-28T00:37:02.171Z,49.03
2022-11-28T00:39:29.341Z,51.33
2022-11-28T00:41:56.592Z,62.10
2022-11-28T00:44:24.750Z,60.22
2022-11-28T00:46:51.901Z,44.35
2022-11-28T00:49:19.182Z,60.40
2022-11-28T00:51:46.309Z,60.13
2022-11-28T00:54:13.563Z,62.47
2022-11-28T00:56:40.807Z,59.72
2022-11-28T00:59:08.037Z,55.30
2022-11-28T01:01:35.238Z,68.18
2022-11-28T01:04:02.605Z,55.78
2022-11-28T01:06:29.775Z,55.55
2022-11-28T01:08:56.996Z,55.15
2022-11-28T01:11:24.250Z,48.15
2022-11-28T01:13:51.560Z,64.50
2022-11-28T01:16:18.828Z,47.75
2022-11-28T01:18:46.190Z,46.17
2022-11-28T01:21:13.431Z,71.07
2022-11-28T01:23:40.692Z,43.92
2022-11-28T01:26:07.994Z,43.00
2022-11-28T01:28:35.260Z,61.28
2022-11-28T01:31:02.468Z,53.05
2022-11-28T01:33:29.785Z,67.63
2022-11-28T01:35:57.002Z,43.35
2022-11-28T01:38:24.194Z,55.22
2022-11-28T01:40:51.438Z,60.10
2022-11-28T01:43:18.679Z,66.75
2022-11-28T01:45:45.828Z,70.55
2022-11-28T01:48:13.066Z,48.45
2022-11-28T01:50:40.257Z,73.60
2022-11-28T01:53:07.474Z,73.05
2022-11-28T01:55:34.712Z,65.65
2022-11-28T01:58:02.025Z,67.32
2022-11-28T02:00:29.221Z,48.95
2022-11-28T02:02:56.479Z,64.28
2022-11-28T02:05:23.657Z,66.45
2022-11-28T02:07:50.915Z,63.45
2022-11-28T02:10:18.125Z,61.03
2022-11-28T02:12:45.389Z,76.18
2022-11-28T02:15:12.594Z,52.58
2022-11-28T02:17:39.970Z,55.05
2022-11-28T02:20:07.251Z,77.18
2022-11-28T02:22:34.511Z,58.13
2022-11-28T02:25:01.742Z,56.10
2022-11-28T02:27:29.228Z,68.53
2022-11-28T02:29:56.449Z,73.20
2022-11-28T02:32:23.714Z,87.70
2022-11-28T02:34:51.130Z,79.38
2022-11-28T02:37:18.515Z,93.35
2022-11-28T02:39:45.877Z,89.68
2022-11-28T02:42:13.082Z,84.43
2022-11-28T02:44:40.584Z,54.03
2022-11-28T02:47:08.057Z,70.28
2022-11-28T02:49:35.348Z,57.90
2022-11-28T02:52:02.769Z,87.72
2022-11-28T02:54:31.716Z,73.53
2022-11-28T02:56:58.985Z,81.00
2022-11-28T02:59:26.341Z,58.42
2022-11-28T03:01:53.691Z,87.15
2022-11-28T03:04:21.008Z,71.93
2022-11-28T03:06:48.570Z,74.50
2022-11-28T03:09:15.957Z,58.38
2022-11-28T03:11:43.139Z,49.63
2022-11-28T03:14:10.373Z,61.90
2022-11-28T03:16:37.606Z,72.30
2022-11-28T03:19:04.985Z,74.00
2022-11-28T03:21:32.524Z,67.65
2022-11-28T03:24:00.014Z,46.30
2022-11-28T03:26:27.265Z,64.38
2022-11-28T03:28:54.579Z,68.32
2022-11-28T03:31:21.820Z,50.13
2022-11-28T03:33:49.061Z,52.97
2022-11-28T03:36:16.253Z,57.80
2022-11-28T03:38:43.513Z,49.28
2022-11-28T03:41:10.789Z,75.35
2022-11-28T03:43:38.013Z,72.15
2022-11-28T03:46:05.191Z,56.55
2022-11-28T03:48:32.468Z,67.00
2022-11-28T03:50:59.671Z,64.78
2022-11-28T03:53:26.927Z,66.50
2022-11-28T03:55:54.193Z,49.55
2022-11-28T03:58:21.442Z,47.05
2022-11-28T04:00:48.745Z,44.58
2022-11-28T04:03:16.129Z,76.20
2022-11-28T04:05:43.392Z,47.17
2022-11-28T04:08:10.631Z,74.75
2022-11-28T04:10:38.107Z,50.72
2022-11-28T04:13:05.338Z,51.78
2022-11-28T04:15:32.557Z,79.60
2022-11-28T04:17:59.831Z,61.55
2022-11-28T04:20:26.996Z,55.42
2022-11-28T04:22:54.246Z,62.95
2022-11-28T04:25:21.438Z,56.95
2022-11-28T04:27:53.491Z,63.58
2022-11-28T04:30:20.734Z,81.93
2022-11-28T04:32:47.931Z,68.15
2022-11-28T04:35:15.193Z,87.93
2022-11-28T04:37:42.497Z,69.93
2022-11-28T04:40:09.752Z,94.78
2022-11-28T04:42:36.953Z,68.47
2022-11-28T04:45:04.234Z,69.63
2022-11-28T04:47:31.503Z,76.70
2022-11-28T04:49:58.765Z,80.57
2022-11-28T04:52:26.056Z,72.35
2022-11-28T04:54:53.227Z,72.30
2022-11-28T04:57:20.490Z,70.18
2022-11-28T04:59:47.706Z,66.40
2022-11-28T05:02:15.009Z,57.40
2022-11-28T05:04:42.596Z,76.00
2022-11-28T05:07:10.025Z,55.55
2022-11-28T05:09:37.253Z,60.80
2022-11-28T05:12:04.468Z,47.13
2022-11-28T05:14:31.793Z,77.82
2022-11-28T05:16:59.048Z,53.92
2022-11-28T05:19:26.248Z,52.67
2022-11-28T05:21:53.636Z,56.25
2022-11-28T05:24:22.342Z,77.97
2022-11-28T05:26:49.779Z,80.15
2022-11-28T05:29:17.109Z,64.97
2022-11-28T05:31:44.410Z,58.83
2022-11-28T05:34:11.747Z,42.38
2022-11-28T05:36:38.962Z,54.38
2022-11-28T05:39:06.217Z,62.22
2022-11-28T05:41:33.402Z,45.10
2022-11-28T05:44:00.665Z,70.57
2022-11-28T05:46:27.889Z,65.25
2022-11-28T05:48:55.154Z,42.58
2022-11-28T05:51:22.368Z,58.97
2022-11-28T05:53:49.692Z,62.30
2022-11-28T05:56:16.859Z,60.53
2022-11-28T05:58:44.098Z,57.30
2022-11-28T06:01:11.456Z,51.50
2022-11-28T06:03:38.695Z,52.20
2022-11-28T06:06:05.910Z,54.03
2022-11-28T06:08:33.152Z,47.85
2022-11-28T06:11:00.548Z,36.15
2022-11-28T06:13:28.051Z,43.80
2022-11-28T06:15:55.224Z,34.55
2022-11-28T06:18:22.567Z,37.03
2022-11-28T06:20:49.765Z,38.35
2022-11-28T06:23:17.071Z,51.90
2022-11-28T06:25:44.219Z,36.60
2022-11-28T06:28:11.718Z,43.33
2022-11-28T06:30:38.893Z,34.42
2022-11-28T06:33:06.173Z,21.70
2022-11-28T06:35:33.524Z,39.88
2022-11-28T06:38:01.048Z,36.47
2022-11-28T06:40:28.234Z,34.83
2022-11-28T06:42:55.714Z,29.35
2022-11-28T06:45:22.970Z,41.95
2022-11-28T06:47:50.203Z,27.15
2022-11-28T06:50:17.375Z,23.75
2022-11-28T06:52:44.728Z,33.15
2022-11-28T06:55:12.065Z,39.97
2022-11-28T06:57:39.431Z,48.47
2022-11-28T07:00:06.609Z,24.60
2022-11-28T07:02:33.858Z,43.17
2022-11-28T07:05:01.094Z,36.83
2022-11-28T07:07:28.440Z,30.90
2022-11-28T07:09:55.683Z,33.05
2022-11-28T07:12:22.912Z,31.38
2022-11-28T07:14:50.161Z,32.33
2022-11-28T07:17:17.579Z,29.08
2022-11-28T07:19:47.280Z,39.60
2022-11-28T07:22:17.884Z,16.33
2022-11-28T07:24:45.083Z,38.55
2022-11-28T07:27:12.388Z,33.97
2022-11-28T07:29:39.624Z,24.00
2022-11-28T07:32:08.170Z,22.50
2022-11-28T07:34:35.416Z,22.75
2022-11-28T07:37:02.815Z,24.35
2022-11-28T07:39:30.043Z,24.35
2022-11-28T07:41:57.324Z,26.70
2022-11-28T07:44:24.527Z,39.78
2022-11-28T07:46:51.874Z,38.35
2022-11-28T07:49:19.072Z,40.72
2022-11-28T07:51:46.370Z,33.67
2022-11-28T07:54:13.649Z,34.75
2022-11-28T07:57:10.888Z,40.15
2022-11-28T07:59:28.239Z,26.50
2022-11-28T08:01:55.452Z,25.10
2022-11-28T08:04:23.032Z,31.98
2022-11-28T08:06:50.491Z,37.90
2022-11-28T08:09:17.772Z,44.15
2022-11-28T08:11:44.943Z,33.58
2022-11-28T08:14:12.247Z,41.58
2022-11-28T08:16:41.377Z,46.05
2022-11-28T08:19:08.793Z,39.70
2022-11-28T08:21:36.051Z,35.60
2022-11-28T08:24:03.403Z,39.92
2022-11-28T08:26:31.113Z,32.63
2022-11-28T08:28:58.540Z,42.53
2022-11-28T08:31:25.816Z,33.80
2022-11-28T08:33:53.135Z,36.25
2022-11-28T08:36:20.350Z,59.75
2022-11-28T08:39:03.373Z,57.08
2022-11-28T08:41:35.139Z,42.08
2022-11-28T08:44:02.419Z,46.10
2022-11-28T08:46:29.897Z,66.93
2022-11-28T08:48:57.179Z,49.40
2022-11-28T08:51:24.434Z,67.10
2022-11-28T08:53:54.923Z,50.83
2022-11-28T08:56:25.238Z,46.83
2022-11-28T08:58:52.448Z,58.47
2022-11-28T09:01:19.804Z,41.45
2022-11-28T09:03:47.313Z,52.78
2022-11-28T09:06:14.828Z,24.00
2022-11-28T09:08:42.081Z,51.10
2022-11-28T09:11:09.803Z,51.08
2022-11-28T09:13:36.987Z,56.15
2022-11-28T09:16:04.313Z,62.80
2022-11-28T09:18:31.542Z,67.32
2022-11-28T09:20:58.881Z,46.28
2022-11-28T09:23:26.204Z,43.80
2022-11-28T09:25:53.543Z,29.25
2022-11-28T09:28:20.740Z,39.75
2022-11-28T09:30:48.051Z,36.25
2022-11-28T09:33:15.364Z,29.88
2022-11-28T09:35:42.646Z,45.40
2022-11-28T09:38:09.811Z,35.40
2022-11-28T09:40:37.093Z,35.78
2022-11-28T09:43:04.282Z,42.05
2022-11-28T09:45:33.488Z,41.63
2022-11-28T09:48:00.718Z,28.13
2022-11-28T09:50:27.922Z,29.30
2022-11-28T09:52:55.218Z,41.58
2022-11-28T09:55:22.535Z,50.38
2022-11-28T09:57:49.762Z,34.17
2022-11-28T10:00:17.181Z,51.70
2022-11-28T10:02:44.507Z,28.33
2022-11-28T10:05:11.952Z,34.58
2022-11-28T10:07:39.247Z,33.90
2022-11-28T10:10:06.512Z,35.13
2022-11-28T10:12:33.696Z,35.35
2022-11-28T10:15:00.969Z,26.50
2022-11-28T10:17:28.502Z,40.42
2022-11-28T10:19:55.793Z,34.67
2022-11-28T10:22:23.117Z,44.03
2022-11-28T10:24:50.434Z,29.10
2022-11-28T10:27:20.125Z,38.08
2022-11-28T10:29:51.239Z,24.40
2022-11-28T10:32:18.401Z,32.10
2022-11-28T10:34:45.646Z,26.08
2022-11-28T10:37:12.796Z,28.45
2022-11-28T10:39:40.250Z,25.67
2022-11-28T10:42:14.404Z,30.10
2022-11-28T10:44:41.723Z,15.18
2022-11-28T10:47:08.924Z,26.80
2022-11-28T10:49:36.187Z,25.10
2022-11-28T10:52:03.384Z,30.45
2022-11-28T10:54:30.640Z,20.70
2022-11-28T10:56:58.291Z,28.17
2022-11-28T10:59:25.515Z,26.83
2022-11-28T11:01:52.768Z,15.43
2022-11-28T11:04:20.205Z,23.52
2022-11-28T11:07:06.947Z,24.55
2022-11-28T11:09:34.625Z,14.35
2022-11-28T11:12:01.784Z,25.63
2022-11-28T11:14:29.014Z,16.02
2022-11-28T11:16:56.923Z,19.77
2022-11-28T11:19:24.244Z,24.23
2022-11-28T11:21:51.458Z,22.73
2022-11-28T11:24:18.945Z,19.25
2022-11-28T11:26:46.099Z,25.27
2022-11-28T11:29:13.334Z,21.60
2022-11-28T11:31:40.623Z,24.70
2022-11-28T11:34:07.959Z,23.42
2022-11-28T11:36:35.413Z,18.42
2022-11-28T11:39:02.668Z,20.00
2022-11-28T11:41:29.937Z,15.95
2022-11-28T11:43:57.268Z,13.55
2022-11-28T11:46:24.661Z,21.67
2022-11-28T11:48:52.274Z,19.38
2022-11-28T11:51:19.431Z,12.93
2022-11-28T11:53:46.676Z,17.30
2022-11-28T11:56:13.942Z,23.88
2022-11-28T11:58:41.127Z,23.33
2022-11-28T12:01:08.533Z,13.82
2022-11-28T12:03:35.792Z,13.02
2022-11-28T12:06:18.359Z,24.00
2022-11-28T12:08:45.753Z,16.05
2022-11-28T12:11:12.909Z,13.73
2022-11-28T12:13:40.225Z,13.48
2022-11-28T12:16:07.632Z,26.27
2022-11-28T12:18:37.850Z,10.73
2022-11-28T12:21:05.243Z,19.10
2022-11-28T12:23:32.582Z,12.77
2022-11-28T12:25:59.890Z,15.82
2022-11-28T12:28:27.078Z,15.27
2022-11-28T12:30:54.432Z,11.48
2022-11-28T12:33:21.614Z,11.60
2022-11-28T12:35:48.879Z,14.13
2022-11-28T12:38:16.073Z,8.05
2022-11-28T12:40:43.422Z,17.23
2022-11-28T12:43:10.592Z,19.25
2022-11-28T12:45:39.106Z,15.23
2022-11-28T12:48:06.287Z,16.20
2022-11-28T12:50:34.412Z,20.00
2022-11-28T12:53:01.727Z,17.13
2022-11-28T12:55:28.946Z,7.63
2022-11-28T12:57:56.073Z,11.43
2022-11-28T13:00:23.420Z,16.20
2022-11-28T13:02:50.715Z,14.35
2022-11-28T13:05:17.963Z,17.15
2022-11-28T13:07:45.262Z,19.05
2022-11-28T13:10:12.482Z,14.13
2022-11-28T13:12:39.712Z,20.15
2022-11-28T13:15:07.377Z,13.55
2022-11-28T13:17:35.936Z,11.48
2022-11-28T13:20:03.559Z,16.83
2022-11-28T13:22:30.819Z,16.88
2022-11-28T13:25:00.842Z,18.33
2022-11-28T13:27:32.558Z,12.25
2022-11-28T13:29:59.742Z,11.50
2022-11-28T13:32:26.905Z,12.45
2022-11-28T13:34:54.246Z,13.27
2022-11-28T13:40:08.846Z,12.45
2022-11-28T13:43:02.453Z,19.38
2022-11-28T13:45:28.369Z,19.50
2022-11-28T13:48:00.365Z,11.27
2022-11-28T13:50:27.589Z,23.33
2022-11-28T13:52:54.812Z,17.92
2022-11-28T13:55:21.985Z,11.30
2022-11-28T13:57:49.695Z,12.68
2022-11-28T14:00:16.868Z,18.95
2022-11-28T14:02:45.440Z,14.02
2022-11-28T14:05:12.716Z,12.27
2022-11-28T14:07:39.967Z,15.10
2022-11-28T14:10:07.234Z,12.25
2022-11-28T14:12:34.687Z,15.73
2022-11-28T14:15:01.905Z,11.48
2022-11-28T14:17:29.170Z,14.82
2022-11-28T14:19:56.521Z,20.27
2022-11-28T14:22:24.431Z,11.52
2022-11-28T14:24:51.718Z,18.65
2022-11-28T14:27:19.408Z,7.30
2022-11-28T14:29:47.959Z,10.00
2022-11-28T14:32:29.826Z,12.82
2022-11-28T14:34:59.263Z,14.00
2022-11-28T14:37:28.525Z,13.50
2022-11-28T14:39:56.286Z,19.50
2022-11-28T14:42:58.376Z,15.80
2022-11-28T14:45:11.849Z,14.68
2022-11-28T14:47:42.743Z,14.63
2022-11-28T14:50:13.606Z,16.85
2022-11-28T14:52:41.420Z,13.82
2022-11-28T14:55:10.256Z,11.15
2022-11-28T14:57:37.547Z,21.15
2022-11-28T15:00:04.903Z,24.50
2022-11-28T15:02:35.370Z,25.45
2022-11-28T15:05:02.767Z,22.30
2022-11-28T15:07:30.082Z,14.77
2022-11-28T15:10:04.097Z,12.02
2022-11-28T15:12:34.394Z,15.30
2022-11-28T15:15:02.034Z,13.85
2022-11-28T15:17:30.641Z,12.02
2022-11-28T15:19:58.124Z,17.27
2022-11-28T15:22:25.307Z,13.73
2022-11-28T15:24:52.688Z,12.35
2022-11-28T15:27:19.911Z,13.85
2022-11-28T15:29:47.276Z,11.98
2022-11-28T15:32:14.441Z,22.48
2022-11-28T15:34:42.542Z,15.95
2022-11-28T15:37:10.052Z,18.02
2022-11-28T15:39:41.474Z,33.17
2022-11-28T15:42:09.074Z,31.02
2022-11-28T15:44:37.704Z,42.38
2022-11-28T15:47:05.256Z,43.15
2022-11-28T15:49:32.969Z,48.53
2022-11-28T15:52:00.593Z,53.08
2022-11-28T15:54:28.680Z,59.15
2022-11-28T15:56:56.124Z,54.67
2022-11-28T15:59:23.330Z,47.10
2022-11-28T16:01:53.550Z,51.20
2022-11-28T16:04:26.107Z,47.35
2022-11-28T16:06:53.269Z,60.88
2022-11-28T16:09:20.770Z,57.65
2022-11-28T16:11:48.235Z,56.15
2022-11-28T16:14:15.427Z,54.17
2022-11-28T16:16:42.967Z,46.08
2022-11-28T16:19:10.345Z,47.22
2022-11-28T16:21:37.622Z,43.35
2022-11-28T16:24:04.866Z,49.58
2022-11-28T16:26:32.003Z,40.72
2022-11-28T16:28:59.337Z,36.75
2022-11-28T16:31:26.605Z,33.53
2022-11-28T16:33:54.032Z,34.03
2022-11-28T16:36:21.163Z,32.30
2022-11-28T16:38:48.369Z,38.78
2022-11-28T16:41:15.939Z,34.53
2022-11-28T16:43:43.111Z,27.02
2022-11-28T16:46:12.145Z,23.90
2022-11-28T16:48:39.397Z,25.15
2022-11-28T16:51:07.468Z,36.15
2022-11-28T16:53:34.664Z,25.65
2022-11-28T16:56:02.038Z,30.15
2022-11-28T16:58:29.200Z,24.58
2022-11-28T17:00:56.400Z,27.83
2022-11-28T17:03:23.826Z,29.85
2022-11-28T17:05:51.085Z,27.10
2022-11-28T17:08:18.311Z,37.13
2022-11-28T17:10:46.348Z,20.25
2022-11-28T17:13:14.753Z,24.05
2022-11-28T17:15:42.083Z,30.40
2022-11-28T17:18:09.402Z,26.02
2022-11-28T17:20:36.666Z,19.30
2022-11-28T17:23:04.147Z,19.60
2022-11-28T17:25:31.293Z,15.07
2022-11-28T17:27:58.641Z,20.33
2022-11-28T17:30:25.816Z,12.23
2022-11-28T17:32:53.470Z,13.13
2022-11-28T17:35:20.595Z,19.08
2022-11-28T17:37:47.872Z,19.80
2022-11-28T17:40:33.594Z,14.90
2022-11-28T17:43:01.223Z,29.00
2022-11-28T17:45:28.428Z,19.20
2022-11-28T17:47:55.831Z,20.33
2022-11-28T17:50:22.999Z,18.35
2022-11-28T17:52:50.331Z,17.30
2022-11-28T17:55:20.653Z,15.43
2022-11-28T17:57:48.169Z,21.23
2022-11-28T18:00:15.435Z,26.15
2022-11-28T18:02:44.125Z,15.98
2022-11-28T18:05:11.444Z,22.00
2022-11-28T18:07:40.409Z,17.42
2022-11-28T18:10:11.353Z,14.77
2022-11-28T18:12:39.506Z,14.57
2022-11-28T18:15:08.140Z,15.93
2022-11-28T18:17:35.886Z,22.55
2022-11-28T18:20:03.727Z,24.10
2022-11-28T18:22:30.987Z,27.55
2022-11-28T18:24:58.387Z,39.40
2022-11-28T18:27:25.743Z,32.10
2022-11-28T18:29:53.074Z,28.25
2022-11-28T18:32:20.394Z,36.38
2022-11-28T18:34:47.580Z,32.88
2022-11-28T18:37:14.869Z,34.60
2022-11-28T18:39:42.732Z,29.05
2022-11-28T18:42:10.916Z,34.78
2022-11-28T18:44:38.262Z,32.38
2022-11-28T18:47:06.043Z,26.92
2022-11-28T18:49:33.258Z,25.52
2022-11-28T18:52:00.787Z,26.23
2022-11-28T18:54:31.222Z,23.27
2022-11-28T18:56:58.536Z,26.23
2022-11-28T18:59:25.829Z,22.50
2022-11-28T19:01:53.170Z,28.75
2022-11-28T19:04:20.398Z,30.38
2022-11-28T19:06:48.631Z,23.27
2022-11-28T19:09:15.875Z,25.92
2022-11-28T19:11:43.123Z,28.35
2022-11-28T19:14:10.799Z,31.45
2022-11-28T19:16:39.814Z,25.83
2022-11-28T19:19:09.348Z,23.20
2022-11-28T19:21:36.723Z,33.60
2022-11-28T19:24:04.015Z,34.83
2022-11-28T19:26:31.364Z,28.92
2022-11-28T19:29:00.281Z,32.25
2022-11-28T19:31:28.227Z,27.75
2022-11-28T19:34:00.481Z,17.98
2022-11-28T19:36:30.826Z,23.17
2022-11-28T19:38:58.035Z,26.88
2022-11-28T19:41:25.367Z,16.73
2022-11-28T19:43:52.937Z,30.80
2022-11-28T19:46:20.323Z,21.10
2022-11-28T19:48:51.229Z,25.45
2022-11-28T19:51:19.241Z,14.60
2022-11-28T19:53:46.675Z,22.15
2022-11-28T19:56:14.167Z,18.17
2022-11-28T19:58:41.575Z,24.45
2022-11-28T20:01:09.214Z,22.55
2022-11-28T20:03:36.487Z,15.18
2022-11-28T20:06:03.735Z,25.02
2022-11-28T20:08:31.091Z,22.13
2022-11-28T20:10:58.368Z,18.45
2022-11-28T20:13:25.533Z,41.38
2022-11-28T20:15:52.791Z,22.90
2022-11-28T20:18:20.076Z,21.25
2022-11-28T20:20:47.382Z,15.73
2022-11-28T20:23:14.731Z,22.52
2022-11-28T20:25:43.265Z,19.35
2022-11-28T20:28:10.897Z,20.20
2022-11-28T20:30:38.267Z,19.17
2022-11-28T20:33:05.461Z,24.10
2022-11-28T20:35:32.797Z,27.48
2022-11-28T20:38:00.415Z,28.65
2022-11-28T20:40:27.638Z,29.13
2022-11-28T20:42:54.840Z,24.92
2022-11-28T20:45:22.134Z,23.85
2022-11-28T20:47:50.087Z,31.52
2022-11-28T20:50:17.416Z,33.65
2022-11-28T20:52:44.704Z,28.73
2022-11-28T20:55:12.061Z,28.08
2022-11-28T20:57:39.261Z,25.63
2022-11-28T21:00:07.155Z,29.38
2022-11-28T21:02:34.421Z,22.50
2022-11-28T21:05:01.772Z,26.67
2022-11-28T21:07:31.690Z,26.80
2022-11-28T21:10:00.496Z,24.52
2022-11-28T21:12:27.716Z,23.98
2022-11-28T21:14:55.201Z,22.45
2022-11-28T21:17:22.399Z,35.90
2022-11-28T21:19:49.642Z,32.65
2022-11-28T21:22:16.998Z,28.60
2022-11-28T21:24:46.192Z,35.08
2022-11-28T21:27:13.420Z,39.58
2022-11-28T21:29:40.749Z,30.90
2022-11-28T21:32:08.185Z,26.38
2022-11-28T21:34:35.495Z,29.92
2022-11-28T21:37:02.915Z,23.90
2022-11-28T21:39:30.139Z,40.50
2022-11-28T21:41:57.292Z,43.78
2022-11-28T21:44:24.682Z,41.42
2022-11-28T21:46:51.940Z,48.15
2022-11-28T21:49:19.250Z,28.73
2022-11-28T21:51:46.461Z,27.15
2022-11-28T21:54:13.675Z,33.13
2022-11-28T21:56:41.211Z,39.33
2022-11-28T21:59:08.530Z,33.47
2022-11-28T22:01:36.128Z,30.63
2022-11-28T22:04:03.957Z,27.90
2022-11-28T22:06:31.713Z,34.40
2022-11-28T22:09:03.312Z,28.88
2022-11-28T22:11:34.609Z,33.15
2022-11-28T22:14:03.406Z,34.92
2022-11-28T22:16:30.753Z,31.98
2022-11-28T22:18:59.153Z,26.95
2022-11-28T22:24:14.120Z,49.03
2022-11-28T22:26:41.758Z,39.47
2022-11-28T22:29:09.040Z,37.08
2022-11-28T22:31:36.391Z,31.30
2022-11-28T22:34:03.870Z,30.58
2022-11-28T22:36:32.274Z,50.15
2022-11-28T22:38:59.602Z,38.85
2022-11-28T22:41:29.401Z,31.77
2022-11-28T22:43:59.656Z,38.60
2022-11-28T22:46:27.818Z,34.92
2022-11-28T22:48:55.199Z,28.85
2022-11-28T22:51:22.601Z,31.80
2022-11-28T22:53:49.876Z,34.95
2022-11-28T22:56:17.414Z,33.08
2022-11-28T22:58:44.671Z,33.67
2022-11-28T23:01:11.957Z,28.52
2022-11-28T23:03:39.240Z,36.50
2022-11-28T23:06:06.529Z,25.88
2022-11-28T23:08:33.860Z,30.25
2022-11-28T23:11:02.221Z,47.97
2022-11-28T23:13:30.024Z,41.88
2022-11-28T23:15:57.463Z,33.38
2022-11-28T23:18:24.686Z,31.75
2022-11-28T23:20:52.635Z,37.97
2022-11-28T23:23:19.844Z,31.27
2022-11-28T23:25:47.223Z,29.67
2022-11-28T23:28:14.941Z,43.13
2022-11-28T23:30:42.886Z,32.97
2022-11-28T23:33:10.132Z,36.45
2022-11-28T23:35:37.496Z,31.40
2022-11-28T23:38:04.795Z,50.15
2022-11-28T23:40:32.055Z,37.45
2022-11-28T23:42:59.242Z,39.85
2022-11-28T23:45:26.528Z,35.72
2022-11-28T23:47:53.713Z,32.53
2022-11-28T23:50:20.996Z,32.67
2022-11-28T23:52:48.201Z,41.28
2022-11-28T23:55:15.442Z,32.80
2022-11-28T23:57:42.652Z,35.60
